sensor_id;sensor_type;location;lat;lon;timestamp;P1;durP1;ratioP1;P2;durP2;ratioP2
27576;SDS011;15011;53.380;10.034;2023-05-10T00:02:25;4.50;;;2.40;;
27576;SDS011;15011;53.380;10.034;2023-05-10T00:07:26;7.07;;;2.50;;
27576;SDS011;15011;53.380;10.034;2023-05-10T00:12:27;8.43;;;3.15;;
27576;SDS011;15011;53.380;10.034;2023-05-10T00:17:27;5.60;;;2.70;;
27576;SDS011;15011;53.380;10.034;2023-05-10T00:22:27;5.95;;;2.60;;
27576;SDS011;15011;53.380;10.034;2023-05-10T00:27:28;5.75;;;2.75;;
27576;SDS011;15011;53.380;10.034;2023-05-10T00:32:28;4.93;;;2.53;;
27576;SDS011;15011;53.380;10.034;2023-05-10T00:37:29;6.88;;;2.55;;
27576;SDS011;15011;53.380;10.034;2023-05-10T00:42:29;4.72;;;2.63;;
27576;SDS011;15011;53.380;10.034;2023-05-10T00:47:30;6.13;;;3.13;;
27576;SDS011;15011;53.380;10.034;2023-05-10T00:52:31;4.88;;;2.90;;
27576;SDS011;15011;53.380;10.034;2023-05-10T00:57:31;6.27;;;2.50;;
27576;SDS011;15011;53.380;10.034;2023-05-10T01:02:33;5.25;;;2.95;;
27576;SDS011;15011;53.380;10.034;2023-05-10T01:07:34;8.85;;;3.15;;
27576;SDS011;15011;53.380;10.034;2023-05-10T01:12:35;7.57;;;3.20;;
27576;SDS011;15011;53.380;10.034;2023-05-10T01:17:37;4.57;;;2.85;;
27576;SDS011;15011;53.380;10.034;2023-05-10T01:27:58;4.05;;;3.20;;
27576;SDS011;15011;53.380;10.034;2023-05-10T01:33:33;3.90;;;2.63;;
27576;SDS011;15011;53.380;10.034;2023-05-10T01:38:42;6.18;;;3.20;;
27576;SDS011;15011;53.380;10.034;2023-05-10T01:49:00;5.75;;;3.10;;
27576;SDS011;15011;53.380;10.034;2023-05-10T01:54:01;5.75;;;3.08;;
27576;SDS011;15011;53.380;10.034;2023-05-10T01:59:04;3.30;;;2.60;;
27576;SDS011;15011;53.380;10.034;2023-05-10T02:04:07;4.75;;;3.30;;
27576;SDS011;15011;53.380;10.034;2023-05-10T02:09:09;7.95;;;3.03;;
27576;SDS011;15011;53.380;10.034;2023-05-10T02:14:10;7.33;;;3.10;;
27576;SDS011;15011;53.380;10.034;2023-05-10T02:19:11;5.72;;;3.10;;
27576;SDS011;15011;53.380;10.034;2023-05-10T02:24:12;6.53;;;4.00;;
27576;SDS011;15011;53.380;10.034;2023-05-10T02:29:13;6.90;;;3.20;;
27576;SDS011;15011;53.380;10.034;2023-05-10T02:34:14;7.30;;;3.45;;
27576;SDS011;15011;53.380;10.034;2023-05-10T02:39:15;5.97;;;3.40;;
27576;SDS011;15011;53.380;10.034;2023-05-10T02:44:17;4.68;;;3.33;;
27576;SDS011;15011;53.380;10.034;2023-05-10T02:49:19;3.22;;;2.70;;
27576;SDS011;15011;53.380;10.034;2023-05-10T02:54:20;6.20;;;3.45;;
27576;SDS011;15011;53.380;10.034;2023-05-10T02:59:22;6.22;;;3.58;;
27576;SDS011;15011;53.380;10.034;2023-05-10T03:04:23;6.07;;;3.60;;
27576;SDS011;15011;53.380;10.034;2023-05-10T03:09:23;6.50;;;3.78;;
27576;SDS011;15011;53.380;10.034;2023-05-10T03:24:53;5.57;;;3.75;;
27576;SDS011;15011;53.380;10.034;2023-05-10T03:29:56;10.68;;;3.65;;
27576;SDS011;15011;53.380;10.034;2023-05-10T03:34:57;5.65;;;3.80;;
27576;SDS011;15011;53.380;10.034;2023-05-10T03:39:58;5.35;;;3.47;;
27576;SDS011;15011;53.380;10.034;2023-05-10T03:44:58;7.35;;;3.70;;
27576;SDS011;15011;53.380;10.034;2023-05-10T03:49:58;4.75;;;3.47;;
27576;SDS011;15011;53.380;10.034;2023-05-10T03:54:59;6.55;;;3.85;;
27576;SDS011;15011;53.380;10.034;2023-05-10T03:59:59;6.68;;;3.75;;
27576;SDS011;15011;53.380;10.034;2023-05-10T04:05:00;5.82;;;3.25;;
27576;SDS011;15011;53.380;10.034;2023-05-10T04:10:01;6.20;;;3.13;;
27576;SDS011;15011;53.380;10.034;2023-05-10T04:15:01;4.78;;;3.42;;
27576;SDS011;15011;53.380;10.034;2023-05-10T04:20:02;5.00;;;3.10;;
27576;SDS011;15011;53.380;10.034;2023-05-10T04:25:03;7.35;;;3.45;;
27576;SDS011;15011;53.380;10.034;2023-05-10T04:30:05;6.00;;;3.95;;
27576;SDS011;15011;53.380;10.034;2023-05-10T04:35:06;5.55;;;3.55;;
27576;SDS011;15011;53.380;10.034;2023-05-10T04:40:07;6.85;;;3.72;;
27576;SDS011;15011;53.380;10.034;2023-05-10T04:45:08;6.10;;;3.50;;
27576;SDS011;15011;53.380;10.034;2023-05-10T04:50:09;8.03;;;3.90;;
27576;SDS011;15011;53.380;10.034;2023-05-10T04:55:10;7.55;;;4.03;;
27576;SDS011;15011;53.380;10.034;2023-05-10T05:00:10;5.18;;;3.15;;
27576;SDS011;15011;53.380;10.034;2023-05-10T05:05:12;6.70;;;3.55;;
27576;SDS011;15011;53.380;10.034;2023-05-10T05:10:12;6.53;;;3.47;;
27576;SDS011;15011;53.380;10.034;2023-05-10T05:15:13;8.97;;;4.00;;
27576;SDS011;15011;53.380;10.034;2023-05-10T05:20:15;4.53;;;3.47;;
27576;SDS011;15011;53.380;10.034;2023-05-10T05:25:15;7.57;;;3.65;;
27576;SDS011;15011;53.380;10.034;2023-05-10T05:30:16;6.78;;;4.55;;
27576;SDS011;15011;53.380;10.034;2023-05-10T05:35:16;5.25;;;3.58;;
27576;SDS011;15011;53.380;10.034;2023-05-10T05:40:17;5.65;;;3.63;;
27576;SDS011;15011;53.380;10.034;2023-05-10T05:45:17;7.78;;;3.50;;
27576;SDS011;15011;53.380;10.034;2023-05-10T05:50:18;6.28;;;3.63;;
27576;SDS011;15011;53.380;10.034;2023-05-10T05:55:18;7.85;;;3.80;;
27576;SDS011;15011;53.380;10.034;2023-05-10T06:00:19;9.75;;;3.70;;
27576;SDS011;15011;53.380;10.034;2023-05-10T06:05:19;5.63;;;3.67;;
27576;SDS011;15011;53.380;10.034;2023-05-10T06:10:22;4.53;;;3.08;;
27576;SDS011;15011;53.380;10.034;2023-05-10T06:15:22;7.10;;;3.53;;
27576;SDS011;15011;53.380;10.034;2023-05-10T06:20:23;5.47;;;3.60;;
27576;SDS011;15011;53.380;10.034;2023-05-10T06:25:23;9.98;;;4.00;;
27576;SDS011;15011;53.380;10.034;2023-05-10T06:30:24;8.20;;;3.55;;
27576;SDS011;15011;53.380;10.034;2023-05-10T06:35:28;9.40;;;3.90;;
27576;SDS011;15011;53.380;10.034;2023-05-10T06:40:29;5.38;;;3.25;;
27576;SDS011;15011;53.380;10.034;2023-05-10T06:45:29;5.18;;;3.90;;
27576;SDS011;15011;53.380;10.034;2023-05-10T06:50:29;5.38;;;3.67;;
27576;SDS011;15011;53.380;10.034;2023-05-10T06:55:30;9.50;;;3.72;;
27576;SDS011;15011;53.380;10.034;2023-05-10T07:00:31;16.27;;;4.28;;
27576;SDS011;15011;53.380;10.034;2023-05-10T07:05:31;5.82;;;3.80;;
27576;SDS011;15011;53.380;10.034;2023-05-10T07:10:32;9.05;;;3.60;;
27576;SDS011;15011;53.380;10.034;2023-05-10T07:15:33;8.85;;;3.90;;
27576;SDS011;15011;53.380;10.034;2023-05-10T07:20:33;6.93;;;5.25;;
27576;SDS011;15011;53.380;10.034;2023-05-10T07:25:34;6.65;;;3.63;;
27576;SDS011;15011;53.380;10.034;2023-05-10T07:30:34;6.30;;;3.80;;
27576;SDS011;15011;53.380;10.034;2023-05-10T07:35:35;4.00;;;3.43;;
27576;SDS011;15011;53.380;10.034;2023-05-10T07:40:36;7.57;;;3.80;;
27576;SDS011;15011;53.380;10.034;2023-05-10T07:45:37;10.80;;;4.32;;
27576;SDS011;15011;53.380;10.034;2023-05-10T07:50:37;6.30;;;3.92;;
27576;SDS011;15011;53.380;10.034;2023-05-10T07:55:38;5.38;;;4.00;;
27576;SDS011;15011;53.380;10.034;2023-05-10T08:00:38;8.20;;;4.00;;
27576;SDS011;15011;53.380;10.034;2023-05-10T08:05:40;8.30;;;3.77;;
27576;SDS011;15011;53.380;10.034;2023-05-10T08:10:41;7.70;;;4.00;;
27576;SDS011;15011;53.380;10.034;2023-05-10T08:15:41;4.70;;;3.58;;
27576;SDS011;15011;53.380;10.034;2023-05-10T08:20:42;5.07;;;3.70;;
27576;SDS011;15011;53.380;10.034;2023-05-10T08:25:42;5.60;;;4.07;;
27576;SDS011;15011;53.380;10.034;2023-05-10T08:30:42;5.97;;;3.92;;
27576;SDS011;15011;53.380;10.034;2023-05-10T08:35:43;4.75;;;4.18;;
27576;SDS011;15011;53.380;10.034;2023-05-10T08:40:44;7.47;;;5.78;;
27576;SDS011;15011;53.380;10.034;2023-05-10T08:45:45;10.32;;;4.57;;
27576;SDS011;15011;53.380;10.034;2023-05-10T08:50:47;7.25;;;4.80;;
27576;SDS011;15011;53.380;10.034;2023-05-10T08:55:47;9.73;;;4.45;;
27576;SDS011;15011;53.380;10.034;2023-05-10T09:00:49;12.27;;;7.85;;
27576;SDS011;15011;53.380;10.034;2023-05-10T09:05:51;9.48;;;4.70;;
27576;SDS011;15011;53.380;10.034;2023-05-10T09:10:51;6.85;;;5.53;;
27576;SDS011;15011;53.380;10.034;2023-05-10T09:15:52;11.13;;;5.38;;
27576;SDS011;15011;53.380;10.034;2023-05-10T09:20:53;6.13;;;5.20;;
27576;SDS011;15011;53.380;10.034;2023-05-10T09:26:04;10.95;;;5.90;;
27576;SDS011;15011;53.380;10.034;2023-05-10T09:31:06;11.52;;;5.75;;
27576;SDS011;15011;53.380;10.034;2023-05-10T09:36:06;12.15;;;6.25;;
27576;SDS011;15011;53.380;10.034;2023-05-10T09:41:15;7.72;;;6.22;;
27576;SDS011;15011;53.380;10.034;2023-05-10T09:46:25;10.80;;;6.85;;
27576;SDS011;15011;53.380;10.034;2023-05-10T09:51:26;11.52;;;7.97;;
27576;SDS011;15011;53.380;10.034;2023-05-10T09:56:33;14.93;;;7.97;;
27576;SDS011;15011;53.380;10.034;2023-05-10T10:01:39;9.88;;;7.20;;
27576;SDS011;15011;53.380;10.034;2023-05-10T10:06:40;12.80;;;8.75;;
27576;SDS011;15011;53.380;10.034;2023-05-10T10:11:41;12.25;;;8.25;;
27576;SDS011;15011;53.380;10.034;2023-05-10T10:16:41;12.70;;;8.75;;
27576;SDS011;15011;53.380;10.034;2023-05-10T10:21:42;12.07;;;8.95;;
27576;SDS011;15011;53.380;10.034;2023-05-10T10:26:42;13.73;;;9.35;;
27576;SDS011;15011;53.380;10.034;2023-05-10T10:36:54;18.10;;;10.77;;
27576;SDS011;15011;53.380;10.034;2023-05-10T10:41:56;13.88;;;10.40;;
27576;SDS011;15011;53.380;10.034;2023-05-10T10:47:07;13.25;;;10.20;;
27576;SDS011;15011;53.380;10.034;2023-05-10T11:03:08;10.90;;;8.73;;
27576;SDS011;15011;53.380;10.034;2023-05-10T11:08:11;12.95;;;9.60;;
27576;SDS011;15011;53.380;10.034;2023-05-10T11:13:26;16.92;;;11.43;;
27576;SDS011;15011;53.380;10.034;2023-05-10T11:18:31;15.45;;;10.98;;
27576;SDS011;15011;53.380;10.034;2023-05-10T11:23:32;12.68;;;10.40;;
27576;SDS011;15011;53.380;10.034;2023-05-10T11:28:45;16.17;;;11.38;;
27576;SDS011;15011;53.380;10.034;2023-05-10T11:33:50;13.32;;;10.52;;
27576;SDS011;15011;53.380;10.034;2023-05-10T11:38:52;15.18;;;11.75;;
27576;SDS011;15011;53.380;10.034;2023-05-10T11:43:53;17.77;;;11.15;;
27576;SDS011;15011;53.380;10.034;2023-05-10T11:48:59;14.00;;;11.37;;
27576;SDS011;15011;53.380;10.034;2023-05-10T11:54:07;13.68;;;11.50;;
27576;SDS011;15011;53.380;10.034;2023-05-10T11:59:09;14.40;;;10.88;;
27576;SDS011;15011;53.380;10.034;2023-05-10T12:04:09;12.75;;;10.35;;
27576;SDS011;15011;53.380;10.034;2023-05-10T12:09:10;10.40;;;7.70;;
27576;SDS011;15011;53.380;10.034;2023-05-10T12:14:10;12.30;;;9.30;;
27576;SDS011;15011;53.380;10.034;2023-05-10T12:19:11;13.75;;;9.20;;
27576;SDS011;15011;53.380;10.034;2023-05-10T12:24:11;9.57;;;7.22;;
27576;SDS011;15011;53.380;10.034;2023-05-10T12:29:13;9.90;;;7.18;;
27576;SDS011;15011;53.380;10.034;2023-05-10T12:34:27;8.98;;;7.75;;
27576;SDS011;15011;53.380;10.034;2023-05-10T12:39:41;8.50;;;7.15;;
27576;SDS011;15011;53.380;10.034;2023-05-10T12:44:42;10.07;;;8.75;;
27576;SDS011;15011;53.380;10.034;2023-05-10T12:49:43;9.57;;;7.97;;
27576;SDS011;15011;53.380;10.034;2023-05-10T12:54:43;7.68;;;6.75;;
27576;SDS011;15011;53.380;10.034;2023-05-10T12:59:43;9.37;;;7.90;;
27576;SDS011;15011;53.380;10.034;2023-05-10T13:04:44;9.60;;;7.15;;
27576;SDS011;15011;53.380;10.034;2023-05-10T13:09:46;8.57;;;7.28;;
27576;SDS011;15011;53.380;10.034;2023-05-10T13:14:46;8.18;;;7.38;;
27576;SDS011;15011;53.380;10.034;2023-05-10T13:19:47;8.38;;;7.28;;
27576;SDS011;15011;53.380;10.034;2023-05-10T13:24:47;8.65;;;7.25;;
27576;SDS011;15011;53.380;10.034;2023-05-10T13:29:48;11.70;;;7.20;;
27576;SDS011;15011;53.380;10.034;2023-05-10T13:34:48;8.95;;;7.20;;
27576;SDS011;15011;53.380;10.034;2023-05-10T13:39:48;7.03;;;6.32;;
27576;SDS011;15011;53.380;10.034;2023-05-10T13:44:49;8.68;;;6.30;;
27576;SDS011;15011;53.380;10.034;2023-05-10T13:49:50;8.82;;;6.28;;
27576;SDS011;15011;53.380;10.034;2023-05-10T13:54:51;6.53;;;5.60;;
27576;SDS011;15011;53.380;10.034;2023-05-10T13:59:54;7.32;;;5.90;;
27576;SDS011;15011;53.380;10.034;2023-05-10T14:04:55;7.17;;;5.43;;
27576;SDS011;15011;53.380;10.034;2023-05-10T14:09:55;7.45;;;6.35;;
27576;SDS011;15011;53.380;10.034;2023-05-10T14:14:56;10.05;;;7.10;;
27576;SDS011;15011;53.380;10.034;2023-05-10T14:19:58;6.35;;;4.38;;
27576;SDS011;15011;53.380;10.034;2023-05-10T14:24:58;6.43;;;4.85;;
27576;SDS011;15011;53.380;10.034;2023-05-10T14:29:59;5.93;;;4.72;;
27576;SDS011;15011;53.380;10.034;2023-05-10T14:34:59;6.28;;;4.85;;
27576;SDS011;15011;53.380;10.034;2023-05-10T14:40:00;4.60;;;4.15;;
27576;SDS011;15011;53.380;10.034;2023-05-10T14:45:00;12.77;;;9.10;;
27576;SDS011;15011;53.380;10.034;2023-05-10T14:50:01;4.95;;;4.45;;
27576;SDS011;15011;53.380;10.034;2023-05-10T14:55:02;5.20;;;4.68;;
27576;SDS011;15011;53.380;10.034;2023-05-10T15:00:03;5.13;;;4.25;;
27576;SDS011;15011;53.380;10.034;2023-05-10T15:05:03;7.35;;;4.45;;
27576;SDS011;15011;53.380;10.034;2023-05-10T15:10:04;6.30;;;4.13;;
27576;SDS011;15011;53.380;10.034;2023-05-10T15:15:06;7.60;;;4.28;;
27576;SDS011;15011;53.380;10.034;2023-05-10T15:20:07;4.28;;;3.88;;
27576;SDS011;15011;53.380;10.034;2023-05-10T15:25:08;7.85;;;4.50;;
27576;SDS011;15011;53.380;10.034;2023-05-10T15:30:09;4.95;;;4.43;;
27576;SDS011;15011;53.380;10.034;2023-05-10T15:35:10;5.95;;;4.20;;
27576;SDS011;15011;53.380;10.034;2023-05-10T15:40:11;6.95;;;3.83;;
27576;SDS011;15011;53.380;10.034;2023-05-10T15:45:11;7.00;;;3.83;;
27576;SDS011;15011;53.380;10.034;2023-05-10T15:50:12;14.35;;;12.65;;
27576;SDS011;15011;53.380;10.034;2023-05-10T15:55:12;4.60;;;3.90;;
27576;SDS011;15011;53.380;10.034;2023-05-10T16:00:13;6.72;;;4.45;;
27576;SDS011;15011;53.380;10.034;2023-05-10T16:05:13;6.70;;;4.28;;
27576;SDS011;15011;53.380;10.034;2023-05-10T16:10:14;4.30;;;3.75;;
27576;SDS011;15011;53.380;10.034;2023-05-10T16:15:15;3.67;;;3.25;;
27576;SDS011;15011;53.380;10.034;2023-05-10T16:20:16;4.35;;;3.20;;
27576;SDS011;15011;53.380;10.034;2023-05-10T16:25:16;6.93;;;4.00;;
27576;SDS011;15011;53.380;10.034;2023-05-10T16:30:17;5.13;;;3.40;;
27576;SDS011;15011;53.380;10.034;2023-05-10T16:35:18;3.53;;;3.15;;
27576;SDS011;15011;53.380;10.034;2023-05-10T16:40:18;6.55;;;3.00;;
27576;SDS011;15011;53.380;10.034;2023-05-10T16:45:19;3.85;;;3.25;;
27576;SDS011;15011;53.380;10.034;2023-05-10T16:50:19;6.03;;;3.30;;
27576;SDS011;15011;53.380;10.034;2023-05-10T16:55:19;3.95;;;3.60;;
27576;SDS011;15011;53.380;10.034;2023-05-10T17:00:20;5.15;;;3.40;;
27576;SDS011;15011;53.380;10.034;2023-05-10T17:05:21;3.30;;;3.00;;
27576;SDS011;15011;53.380;10.034;2023-05-10T17:10:21;5.40;;;3.03;;
27576;SDS011;15011;53.380;10.034;2023-05-10T17:15:22;3.20;;;2.90;;
27576;SDS011;15011;53.380;10.034;2023-05-10T17:20:22;4.93;;;3.60;;
27576;SDS011;15011;53.380;10.034;2023-05-10T17:25:23;3.75;;;3.40;;
27576;SDS011;15011;53.380;10.034;2023-05-10T17:30:23;4.03;;;3.63;;
27576;SDS011;15011;53.380;10.034;2023-05-10T17:35:27;3.85;;;2.95;;
27576;SDS011;15011;53.380;10.034;2023-05-10T17:40:27;2.80;;;2.57;;
27576;SDS011;15011;53.380;10.034;2023-05-10T17:45:27;2.30;;;2.10;;
27576;SDS011;15011;53.380;10.034;2023-05-10T17:50:28;3.35;;;1.85;;
27576;SDS011;15011;53.380;10.034;2023-05-10T17:55:29;1.90;;;1.73;;
27576;SDS011;15011;53.380;10.034;2023-05-10T18:00:29;2.42;;;2.22;;
27576;SDS011;15011;53.380;10.034;2023-05-10T18:05:30;2.30;;;2.10;;
27576;SDS011;15011;53.380;10.034;2023-05-10T18:10:31;2.60;;;2.03;;
27576;SDS011;15011;53.380;10.034;2023-05-10T18:15:32;2.33;;;1.88;;
27576;SDS011;15011;53.380;10.034;2023-05-10T18:20:32;2.33;;;2.13;;
27576;SDS011;15011;53.380;10.034;2023-05-10T18:25:33;2.83;;;2.45;;
27576;SDS011;15011;53.380;10.034;2023-05-10T18:30:33;2.77;;;2.33;;
27576;SDS011;15011;53.380;10.034;2023-05-10T18:35:34;3.42;;;2.00;;
27576;SDS011;15011;53.380;10.034;2023-05-10T18:40:34;2.60;;;2.40;;
27576;SDS011;15011;53.380;10.034;2023-05-10T18:45:35;3.20;;;2.90;;
27576;SDS011;15011;53.380;10.034;2023-05-10T18:50:36;4.15;;;2.95;;
27576;SDS011;15011;53.380;10.034;2023-05-10T18:55:37;3.58;;;2.65;;
27576;SDS011;15011;53.380;10.034;2023-05-10T19:00:37;3.03;;;2.42;;
27576;SDS011;15011;53.380;10.034;2023-05-10T19:05:38;4.13;;;2.47;;
27576;SDS011;15011;53.380;10.034;2023-05-10T19:10:38;3.65;;;2.10;;
27576;SDS011;15011;53.380;10.034;2023-05-10T19:15:39;2.70;;;2.45;;
27576;SDS011;15011;53.380;10.034;2023-05-10T19:20:39;2.08;;;1.88;;
27576;SDS011;15011;53.380;10.034;2023-05-10T19:25:40;2.63;;;1.50;;
27576;SDS011;15011;53.380;10.034;2023-05-10T19:30:41;1.77;;;1.40;;
27576;SDS011;15011;53.380;10.034;2023-05-10T19:35:41;1.50;;;1.40;;
27576;SDS011;15011;53.380;10.034;2023-05-10T19:40:42;4.45;;;1.90;;
27576;SDS011;15011;53.380;10.034;2023-05-10T19:45:43;2.85;;;1.80;;
27576;SDS011;15011;53.380;10.034;2023-05-10T19:50:43;3.33;;;1.63;;
27576;SDS011;15011;53.380;10.034;2023-05-10T19:55:43;4.55;;;1.70;;
27576;SDS011;15011;53.380;10.034;2023-05-10T20:00:44;2.33;;;1.70;;
27576;SDS011;15011;53.380;10.034;2023-05-10T20:05:45;1.50;;;1.20;;
27576;SDS011;15011;53.380;10.034;2023-05-10T20:10:45;1.40;;;1.30;;
27576;SDS011;15011;53.380;10.034;2023-05-10T20:15:46;1.70;;;1.38;;
27576;SDS011;15011;53.380;10.034;2023-05-10T20:20:47;1.98;;;1.77;;
27576;SDS011;15011;53.380;10.034;2023-05-10T20:25:47;2.05;;;1.92;;
27576;SDS011;15011;53.380;10.034;2023-05-10T20:30:49;2.83;;;1.85;;
27576;SDS011;15011;53.380;10.034;2023-05-10T20:35:51;2.03;;;1.73;;
27576;SDS011;15011;53.380;10.034;2023-05-10T20:40:51;2.78;;;2.33;;
27576;SDS011;15011;53.380;10.034;2023-05-10T20:45:52;2.03;;;1.85;;
27576;SDS011;15011;53.380;10.034;2023-05-10T20:50:53;2.47;;;2.17;;
27576;SDS011;15011;53.380;10.034;2023-05-10T20:55:53;2.08;;;1.88;;
27576;SDS011;15011;53.380;10.034;2023-05-10T21:00:54;3.10;;;2.80;;
27576;SDS011;15011;53.380;10.034;2023-05-10T21:05:54;3.60;;;3.30;;
27576;SDS011;15011;53.380;10.034;2023-05-10T21:10:54;4.38;;;3.47;;
27576;SDS011;15011;53.380;10.034;2023-05-10T21:15:55;4.05;;;3.10;;
27576;SDS011;15011;53.380;10.034;2023-05-10T21:20:56;2.97;;;2.50;;
27576;SDS011;15011;53.380;10.034;2023-05-10T21:25:57;2.87;;;2.43;;
27576;SDS011;15011;53.380;10.034;2023-05-10T21:30:58;5.43;;;3.85;;
27576;SDS011;15011;53.380;10.034;2023-05-10T21:35:59;3.35;;;3.05;;
27576;SDS011;15011;53.380;10.034;2023-05-10T21:41:00;3.87;;;3.40;;
27576;SDS011;15011;53.380;10.034;2023-05-10T21:46:01;4.93;;;3.60;;
27576;SDS011;15011;53.380;10.034;2023-05-10T21:51:02;4.55;;;3.85;;
27576;SDS011;15011;53.380;10.034;2023-05-10T21:56:02;5.28;;;4.32;;
27576;SDS011;15011;53.380;10.034;2023-05-10T22:01:03;5.97;;;5.18;;
27576;SDS011;15011;53.380;10.034;2023-05-10T22:06:03;7.82;;;7.03;;
27576;SDS011;15011;53.380;10.034;2023-05-10T22:11:04;8.25;;;7.38;;
27576;SDS011;15011;53.380;10.034;2023-05-10T22:16:04;10.60;;;8.55;;
27576;SDS011;15011;53.380;10.034;2023-05-10T22:21:07;8.15;;;6.97;;
27576;SDS011;15011;53.380;10.034;2023-05-10T22:26:08;9.10;;;7.72;;
27576;SDS011;15011;53.380;10.034;2023-05-10T22:31:09;8.95;;;8.05;;
27576;SDS011;15011;53.380;10.034;2023-05-10T22:36:12;11.48;;;9.88;;
27576;SDS011;15011;53.380;10.034;2023-05-10T22:41:14;12.73;;;11.35;;
27576;SDS011;15011;53.380;10.034;2023-05-10T22:46:15;13.38;;;11.68;;
27576;SDS011;15011;53.380;10.034;2023-05-10T22:51:15;11.68;;;10.32;;
27576;SDS011;15011;53.380;10.034;2023-05-10T22:56:16;18.00;;;14.30;;
27576;SDS011;15011;53.380;10.034;2023-05-10T23:01:16;17.95;;;14.77;;
27576;SDS011;15011;53.380;10.034;2023-05-10T23:06:17;20.33;;;14.82;;
27576;SDS011;15011;53.380;10.034;2023-05-10T23:11:17;20.58;;;16.10;;
27576;SDS011;15011;53.380;10.034;2023-05-10T23:16:18;19.77;;;15.07;;
27576;SDS011;15011;53.380;10.034;2023-05-10T23:21:18;20.80;;;16.13;;
27576;SDS011;15011;53.380;10.034;2023-05-10T23:26:18;19.55;;;14.82;;
27576;SDS011;15011;53.380;10.034;2023-05-10T23:31:19;21.13;;;16.00;;
27576;SDS011;15011;53.380;10.034;2023-05-10T23:36:19;19.38;;;14.75;;
27576;SDS011;15011;53.380;10.034;2023-05-10T23:41:22;24.65;;;18.13;;
27576;SDS011;15011;53.380;10.034;2023-05-10T23:46:23;23.65;;;17.20;;
27576;SDS011;15011;53.380;10.034;2023-05-10T23:51:24;25.35;;;17.77;;
27576;SDS011;15011;53.380;10.034;2023-05-10T23:56:25;31.73;;;19.33;;
